sensor_id;sensor_type;location;lat;lon;timestamp;pressure;altitude;pressure_sealevel;temperature;humidity
35226;BME280;21813;49.686;21.766;2023-04-15T00:00:50;97351.22;;;9.81;100.00
35226;BME280;21813;49.686;21.766;2023-04-15T00:03:16;97361.19;;;9.86;100.00
35226;BME280;21813;49.686;21.766;2023-04-15T00:05:44;97363.81;;;9.86;100.00
35226;BME280;21813;49.686;21.766;2023-04-15T00:08:09;97356.44;;;9.81;100.00
35226;BME280;21813;49.686;21.766;2023-04-15T00:10:35;97361.38;;;9.84;100.00
35226;BME280;21813;49.686;21.766;2023-04-15T00:13:01;97367.13;;;9.78;100.00
35226;BME280;21813;49.686;21.766;2023-04-15T00:15:27;97363.97;;;9.84;100.00
35226;BME280;21813;49.686;21.766;2023-04-15T00:17:53;97359.75;;;9.73;100.00
35226;BME280;21813;49.686;21.766;2023-04-15T00:20:19;97350.47;;;9.71;100.00
35226;BME280;21813;49.686;21.766;2023-04-15T00:22:48;97358.25;;;9.71;100.00
35226;BME280;21813;49.686;21.766;2023-04-15T00:25:13;97354.97;;;9.69;100.00
35226;BME280;21813;49.686;21.766;2023-04-15T00:27:39;97362.09;;;9.67;100.00
35226;BME280;21813;49.686;21.766;2023-04-15T00:30:06;97351.00;;;9.65;100.00
35226;BME280;21813;49.686;21.766;2023-04-15T00:32:32;97349.38;;;9.64;100.00
35226;BME280;21813;49.686;21.766;2023-04-15T00:34:58;97351.00;;;9.65;100.00
35226;BME280;21813;49.686;21.766;2023-04-15T00:37:23;97341.16;;;9.59;100.00
35226;BME280;21813;49.686;21.766;2023-04-15T00:39:49;97347.47;;;9.66;100.00
35226;BME280;21813;49.686;21.766;2023-04-15T00:42:15;97339.66;;;9.66;100.00
35226;BME280;21813;49.686;21.766;2023-04-15T00:44:42;97348.22;;;9.76;100.00
35226;BME280;21813;49.686;21.766;2023-04-15T00:47:08;97340.75;;;9.63;100.00
35226;BME280;21813;49.686;21.766;2023-04-15T00:49:35;97341.47;;;9.56;100.00
35226;BME280;21813;49.686;21.766;2023-04-15T00:52:01;97340.38;;;9.49;100.00
35226;BME280;21813;49.686;21.766;2023-04-15T00:54:28;97340.38;;;9.49;100.00
35226;BME280;21813;49.686;21.766;2023-04-15T00:56:53;97345.81;;;9.65;100.00
35226;BME280;21813;49.686;21.766;2023-04-15T00:59:20;97356.44;;;9.71;100.00
35226;BME280;21813;49.686;21.766;2023-04-15T01:01:45;97351.56;;;9.59;100.00
35226;BME280;21813;49.686;21.766;2023-04-15T01:04:11;97343.09;;;9.57;100.00
35226;BME280;21813;49.686;21.766;2023-04-15T01:06:37;97353.09;;;9.52;100.00
35226;BME280;21813;49.686;21.766;2023-04-15T01:09:04;97347.22;;;9.50;100.00
35226;BME280;21813;49.686;21.766;2023-04-15T01:11:31;97353.38;;;9.49;100.00
35226;BME280;21813;49.686;21.766;2023-04-15T01:13:58;97349.41;;;9.45;100.00
35226;BME280;21813;49.686;21.766;2023-04-15T01:16:24;97352.97;;;9.44;100.00
35226;BME280;21813;49.686;21.766;2023-04-15T01:18:51;97359.69;;;9.46;100.00
35226;BME280;21813;49.686;21.766;2023-04-15T01:21:17;97365.28;;;9.51;100.00
35226;BME280;21813;49.686;21.766;2023-04-15T01:23:45;97354.63;;;9.45;100.00
35226;BME280;21813;49.686;21.766;2023-04-15T01:26:12;97362.28;;;9.46;100.00
35226;BME280;21813;49.686;21.766;2023-04-15T01:28:40;97347.94;;;9.42;100.00
35226;BME280;21813;49.686;21.766;2023-04-15T01:31:14;97355.72;;;9.52;100.00
35226;BME280;21813;49.686;21.766;2023-04-15T01:33:41;97364.19;;;9.54;100.00
35226;BME280;21813;49.686;21.766;2023-04-15T01:36:09;97371.59;;;9.39;100.00
35226;BME280;21813;49.686;21.766;2023-04-15T01:38:36;97362.31;;;9.27;100.00
35226;BME280;21813;49.686;21.766;2023-04-15T01:41:02;97371.06;;;9.16;100.00
35226;BME280;21813;49.686;21.766;2023-04-15T01:43:34;97376.56;;;9.13;100.00
35226;BME280;21813;49.686;21.766;2023-04-15T01:46:00;97370.53;;;9.13;100.00
35226;BME280;21813;49.686;21.766;2023-04-15T01:48:26;97371.34;;;9.13;100.00
35226;BME280;21813;49.686;21.766;2023-04-15T01:50:53;97363.44;;;9.15;100.00
35226;BME280;21813;49.686;21.766;2023-04-15T01:53:19;97363.13;;;9.27;100.00
35226;BME280;21813;49.686;21.766;2023-04-15T01:55:45;97367.38;;;9.28;100.00
35226;BME280;21813;49.686;21.766;2023-04-15T01:58:11;97353.97;;;9.23;100.00
35226;BME280;21813;49.686;21.766;2023-04-15T02:00:37;97362.84;;;9.21;100.00
35226;BME280;21813;49.686;21.766;2023-04-15T02:03:03;97353.56;;;9.18;100.00
35226;BME280;21813;49.686;21.766;2023-04-15T02:05:29;97357.94;;;9.08;100.00
35226;BME280;21813;49.686;21.766;2023-04-15T02:07:55;97359.31;;;9.03;100.00
35226;BME280;21813;49.686;21.766;2023-04-15T02:10:20;97363.97;;;8.99;100.00
35226;BME280;21813;49.686;21.766;2023-04-15T02:12:46;97362.91;;;8.92;100.00
35226;BME280;21813;49.686;21.766;2023-04-15T02:15:12;97361.50;;;8.88;100.00
35226;BME280;21813;49.686;21.766;2023-04-15T02:17:38;97371.09;;;8.88;100.00
35226;BME280;21813;49.686;21.766;2023-04-15T02:20:04;97357.94;;;8.79;100.00
35226;BME280;21813;49.686;21.766;2023-04-15T02:22:30;97359.59;;;8.80;100.00
35226;BME280;21813;49.686;21.766;2023-04-15T02:24:56;97370.13;;;8.79;100.00
35226;BME280;21813;49.686;21.766;2023-04-15T02:27:22;97360.69;;;8.78;100.00
35226;BME280;21813;49.686;21.766;2023-04-15T02:29:49;97373.81;;;8.76;100.00
35226;BME280;21813;49.686;21.766;2023-04-15T02:32:18;97376.53;;;8.75;100.00
35226;BME280;21813;49.686;21.766;2023-04-15T02:34:44;97383.09;;;8.69;100.00
35226;BME280;21813;49.686;21.766;2023-04-15T02:37:12;97381.72;;;8.65;100.00
35226;BME280;21813;49.686;21.766;2023-04-15T02:39:37;97391.56;;;8.62;100.00
35226;BME280;21813;49.686;21.766;2023-04-15T02:42:04;97385.53;;;8.61;100.00
35226;BME280;21813;49.686;21.766;2023-04-15T02:44:31;97399.66;;;8.68;100.00
35226;BME280;21813;49.686;21.766;2023-04-15T02:46:57;97392.94;;;8.66;100.00
35226;BME280;21813;49.686;21.766;2023-04-15T02:49:24;97400.88;;;8.64;100.00
35226;BME280;21813;49.686;21.766;2023-04-15T02:51:50;97399.22;;;8.63;100.00
35226;BME280;21813;49.686;21.766;2023-04-15T02:54:19;97390.06;;;8.59;100.00
35226;BME280;21813;49.686;21.766;2023-04-15T02:56:47;97380.09;;;8.55;100.00
35226;BME280;21813;49.686;21.766;2023-04-15T02:59:14;97388.00;;;8.53;100.00
35226;BME280;21813;49.686;21.766;2023-04-15T03:01:40;97380.31;;;8.52;100.00
35226;BME280;21813;49.686;21.766;2023-04-15T03:04:05;97385.00;;;8.58;100.00
35226;BME280;21813;49.686;21.766;2023-04-15T03:06:34;97391.84;;;8.59;100.00
35226;BME280;21813;49.686;21.766;2023-04-15T03:08:59;97388.94;;;8.52;100.00
35226;BME280;21813;49.686;21.766;2023-04-15T03:11:30;97389.91;;;8.51;100.00
35226;BME280;21813;49.686;21.766;2023-04-15T03:13:56;97391.00;;;8.49;100.00
35226;BME280;21813;49.686;21.766;2023-04-15T03:16:24;97394.00;;;8.44;100.00
35226;BME280;21813;49.686;21.766;2023-04-15T03:18:50;97398.34;;;8.43;100.00
35226;BME280;21813;49.686;21.766;2023-04-15T03:21:16;97396.72;;;8.42;100.00
35226;BME280;21813;49.686;21.766;2023-04-15T03:23:44;97393.69;;;8.37;100.00
35226;BME280;21813;49.686;21.766;2023-04-15T03:26:23;97397.09;;;8.38;100.00
35226;BME280;21813;49.686;21.766;2023-04-15T03:28:48;97397.50;;;8.33;100.00
35226;BME280;21813;49.686;21.766;2023-04-15T03:31:14;97399.63;;;8.28;100.00
35226;BME280;21813;49.686;21.766;2023-04-15T03:33:40;97393.91;;;8.25;100.00
35226;BME280;21813;49.686;21.766;2023-04-15T03:36:06;97392.13;;;8.25;100.00
35226;BME280;21813;49.686;21.766;2023-04-15T03:38:31;97401.56;;;8.26;100.00
35226;BME280;21813;49.686;21.766;2023-04-15T03:40:57;97399.91;;;8.25;100.00
35226;BME280;21813;49.686;21.766;2023-04-15T03:43:23;97399.38;;;8.22;100.00
35226;BME280;21813;49.686;21.766;2023-04-15T03:45:48;97404.84;;;8.28;100.00
35226;BME280;21813;49.686;21.766;2023-04-15T03:48:14;97399.09;;;8.25;100.00
35226;BME280;21813;49.686;21.766;2023-04-15T03:50:41;97395.25;;;8.19;100.00
35226;BME280;21813;49.686;21.766;2023-04-15T03:53:07;97399.88;;;8.16;100.00
35226;BME280;21813;49.686;21.766;2023-04-15T03:55:33;97397.69;;;8.11;100.00
35226;BME280;21813;49.686;21.766;2023-04-15T03:57:58;97400.72;;;8.16;100.00
35226;BME280;21813;49.686;21.766;2023-04-15T04:00:24;97402.75;;;8.13;100.00
35226;BME280;21813;49.686;21.766;2023-04-15T04:02:50;97406.41;;;8.10;100.00
35226;BME280;21813;49.686;21.766;2023-04-15T04:05:16;97420.09;;;8.12;100.00
35226;BME280;21813;49.686;21.766;2023-04-15T04:07:41;97409.00;;;8.10;100.00
35226;BME280;21813;49.686;21.766;2023-04-15T04:10:07;97417.06;;;8.07;100.00
35226;BME280;21813;49.686;21.766;2023-04-15T04:12:33;97416.13;;;8.08;100.00
35226;BME280;21813;49.686;21.766;2023-04-15T04:14:59;97426.50;;;8.08;100.00
35226;BME280;21813;49.686;21.766;2023-04-15T04:17:24;97427.44;;;8.07;100.00
35226;BME280;21813;49.686;21.766;2023-04-15T04:19:51;97434.53;;;8.05;100.00
35226;BME280;21813;49.686;21.766;2023-04-15T04:22:17;97445.66;;;8.17;100.00
35226;BME280;21813;49.686;21.766;2023-04-15T04:24:42;97447.75;;;8.23;100.00
35226;BME280;21813;49.686;21.766;2023-04-15T04:27:08;97440.91;;;8.22;100.00
35226;BME280;21813;49.686;21.766;2023-04-15T04:29:34;97438.69;;;8.17;100.00
35226;BME280;21813;49.686;21.766;2023-04-15T04:31:59;97441.13;;;8.19;100.00
35226;BME280;21813;49.686;21.766;2023-04-15T04:34:25;97440.34;;;8.18;100.00
35226;BME280;21813;49.686;21.766;2023-04-15T04:36:51;97434.28;;;8.08;100.00
35226;BME280;21813;49.686;21.766;2023-04-15T04:39:17;97438.88;;;8.05;100.00
35226;BME280;21813;49.686;21.766;2023-04-15T04:41:43;97429.34;;;8.05;100.00
35226;BME280;21813;49.686;21.766;2023-04-15T04:44:09;97437.69;;;8.09;100.00
35226;BME280;21813;49.686;21.766;2023-04-15T04:46:34;97450.09;;;8.05;100.00
35226;BME280;21813;49.686;21.766;2023-04-15T04:49:00;97445.44;;;7.99;100.00
35226;BME280;21813;49.686;21.766;2023-04-15T04:51:26;97443.47;;;7.91;100.00
35226;BME280;21813;49.686;21.766;2023-04-15T04:53:52;97453.34;;;7.97;100.00
35226;BME280;21813;49.686;21.766;2023-04-15T04:56:18;97450.63;;;7.99;100.00
35226;BME280;21813;49.686;21.766;2023-04-15T04:58:44;97457.31;;;8.02;100.00
35226;BME280;21813;49.686;21.766;2023-04-15T05:01:10;97455.28;;;8.05;100.00
35226;BME280;21813;49.686;21.766;2023-04-15T05:03:36;97459.41;;;8.08;100.00
35226;BME280;21813;49.686;21.766;2023-04-15T05:06:02;97445.50;;;8.09;100.00
35226;BME280;21813;49.686;21.766;2023-04-15T05:08:30;97454.78;;;8.11;100.00
35226;BME280;21813;49.686;21.766;2023-04-15T05:10:57;97455.34;;;8.15;100.00
35226;BME280;21813;49.686;21.766;2023-04-15T05:13:24;97459.69;;;8.14;100.00
35226;BME280;21813;49.686;21.766;2023-04-15T05:15:49;97454.50;;;8.14;100.00
35226;BME280;21813;49.686;21.766;2023-04-15T05:18:15;97462.44;;;8.13;100.00
35226;BME280;21813;49.686;21.766;2023-04-15T05:20:40;97462.72;;;8.19;100.00
35226;BME280;21813;49.686;21.766;2023-04-15T05:23:06;97455.91;;;8.18;100.00
35226;BME280;21813;49.686;21.766;2023-04-15T05:25:32;97455.38;;;8.24;100.00
35226;BME280;21813;49.686;21.766;2023-04-15T05:27:58;97455.44;;;8.34;100.00
35226;BME280;21813;49.686;21.766;2023-04-15T05:30:23;97462.06;;;8.48;100.00
35226;BME280;21813;49.686;21.766;2023-04-15T05:32:50;97468.81;;;8.60;100.00
35226;BME280;21813;49.686;21.766;2023-04-15T05:35:16;97458.28;;;8.71;100.00
35226;BME280;21813;49.686;21.766;2023-04-15T05:37:42;97465.25;;;8.70;100.00
35226;BME280;21813;49.686;21.766;2023-04-15T05:40:08;97470.84;;;8.66;100.00
35226;BME280;21813;49.686;21.766;2023-04-15T05:42:35;97473.47;;;8.75;100.00
35226;BME280;21813;49.686;21.766;2023-04-15T05:45:01;97470.09;;;8.84;100.00
35226;BME280;21813;49.686;21.766;2023-04-15T05:47:30;97469.69;;;8.89;100.00
35226;BME280;21813;49.686;21.766;2023-04-15T05:52:30;97473.28;;;9.07;100.00
35226;BME280;21813;49.686;21.766;2023-04-15T05:54:56;97476.72;;;9.17;100.00
35226;BME280;21813;49.686;21.766;2023-04-15T05:57:21;97478.50;;;9.26;100.00
35226;BME280;21813;49.686;21.766;2023-04-15T05:59:47;97485.06;;;9.40;98.39
35226;BME280;21813;49.686;21.766;2023-04-15T06:02:13;97490.13;;;9.42;98.26
35226;BME280;21813;49.686;21.766;2023-04-15T06:04:39;97490.28;;;9.40;99.01
35226;BME280;21813;49.686;21.766;2023-04-15T06:07:05;97484.66;;;9.45;98.86
35226;BME280;21813;49.686;21.766;2023-04-15T06:09:31;97484.78;;;9.53;98.21
35226;BME280;21813;49.686;21.766;2023-04-15T06:11:57;97493.69;;;9.60;98.77
35226;BME280;21813;49.686;21.766;2023-04-15T06:14:26;97485.47;;;9.55;99.00
35226;BME280;21813;49.686;21.766;2023-04-15T06:16:52;97492.34;;;9.56;99.25
35226;BME280;21813;49.686;21.766;2023-04-15T06:19:18;97500.81;;;9.58;99.58
35226;BME280;21813;49.686;21.766;2023-04-15T06:21:44;97498.59;;;9.72;99.62
35226;BME280;21813;49.686;21.766;2023-04-15T06:24:11;97495.03;;;9.93;98.35
35226;BME280;21813;49.686;21.766;2023-04-15T06:26:36;97486.91;;;10.05;96.90
35226;BME280;21813;49.686;21.766;2023-04-15T06:29:02;97485.13;;;10.06;95.90
35226;BME280;21813;49.686;21.766;2023-04-15T06:31:31;97490.63;;;10.03;96.64
35226;BME280;21813;49.686;21.766;2023-04-15T06:34:02;97492.28;;;9.94;97.67
35226;BME280;21813;49.686;21.766;2023-04-15T06:36:28;97487.47;;;9.90;96.98
35226;BME280;21813;49.686;21.766;2023-04-15T06:39:12;97493.91;;;9.95;98.53
35226;BME280;21813;49.686;21.766;2023-04-15T06:41:38;97506.06;;;10.14;98.57
35226;BME280;21813;49.686;21.766;2023-04-15T06:44:04;97507.00;;;10.32;98.41
35226;BME280;21813;49.686;21.766;2023-04-15T06:46:31;97517.25;;;10.53;95.95
35226;BME280;21813;49.686;21.766;2023-04-15T06:48:57;97516.00;;;10.57;95.30
35226;BME280;21813;49.686;21.766;2023-04-15T06:51:24;97515.50;;;10.44;97.10
35226;BME280;21813;49.686;21.766;2023-04-15T06:53:49;97513.56;;;10.36;98.97
35226;BME280;21813;49.686;21.766;2023-04-15T06:56:15;97512.22;;;10.32;100.00
35226;BME280;21813;49.686;21.766;2023-04-15T06:58:41;97511.41;;;10.32;100.00
35226;BME280;21813;49.686;21.766;2023-04-15T07:01:08;97518.72;;;10.55;100.00
35226;BME280;21813;49.686;21.766;2023-04-15T07:03:34;97506.53;;;10.83;100.00
35226;BME280;21813;49.686;21.766;2023-04-15T07:06:15;97505.03;;;11.08;99.87
35226;BME280;21813;49.686;21.766;2023-04-15T07:08:41;97511.53;;;11.39;98.80
35226;BME280;21813;49.686;21.766;2023-04-15T07:11:08;97502.63;;;11.42;97.43
35226;BME280;21813;49.686;21.766;2023-04-15T07:13:40;97512.16;;;11.51;96.72
35226;BME280;21813;49.686;21.766;2023-04-15T07:16:06;97529.44;;;11.52;96.78
35226;BME280;21813;49.686;21.766;2023-04-15T07:18:32;97538.41;;;11.49;96.95
35226;BME280;21813;49.686;21.766;2023-04-15T07:20:58;97536.09;;;11.46;93.53
35226;BME280;21813;49.686;21.766;2023-04-15T07:23:26;97546.16;;;11.41;91.16
35226;BME280;21813;49.686;21.766;2023-04-15T07:25:52;97542.53;;;11.25;93.85
35226;BME280;21813;49.686;21.766;2023-04-15T07:28:18;97548.25;;;11.11;95.75
35226;BME280;21813;49.686;21.766;2023-04-15T07:30:45;97543.25;;;10.99;96.31
35226;BME280;21813;49.686;21.766;2023-04-15T07:33:13;97543.03;;;10.83;97.65
35226;BME280;21813;49.686;21.766;2023-04-15T07:36:04;97547.97;;;10.86;99.24
35226;BME280;21813;49.686;21.766;2023-04-15T07:38:31;97531.56;;;10.76;98.98
35226;BME280;21813;49.686;21.766;2023-04-15T07:40:57;97533.19;;;10.77;99.01
35226;BME280;21813;49.686;21.766;2023-04-15T07:43:23;97534.06;;;10.68;100.00
35226;BME280;21813;49.686;21.766;2023-04-15T07:45:49;97542.94;;;10.75;98.61
35226;BME280;21813;49.686;21.766;2023-04-15T07:48:15;97551.88;;;10.73;100.00
35226;BME280;21813;49.686;21.766;2023-04-15T07:50:42;97553.50;;;10.74;99.89
35226;BME280;21813;49.686;21.766;2023-04-15T07:53:10;97559.41;;;10.76;100.00
35226;BME280;21813;49.686;21.766;2023-04-15T07:55:35;97559.91;;;10.79;100.00
35226;BME280;21813;49.686;21.766;2023-04-15T07:58:06;97548.84;;;10.77;100.00
35226;BME280;21813;49.686;21.766;2023-04-15T08:00:31;97546.22;;;10.77;99.62
35226;BME280;21813;49.686;21.766;2023-04-15T08:02:58;97536.75;;;10.76;100.00
35226;BME280;21813;49.686;21.766;2023-04-15T08:05:24;97536.47;;;10.79;99.29
35226;BME280;21813;49.686;21.766;2023-04-15T08:07:51;97536.56;;;10.87;99.62
35226;BME280;21813;49.686;21.766;2023-04-15T08:10:16;97556.38;;;11.07;99.63
35226;BME280;21813;49.686;21.766;2023-04-15T08:12:43;97550.78;;;11.20;99.67
35226;BME280;21813;49.686;21.766;2023-04-15T08:15:11;97563.28;;;11.44;98.35
35226;BME280;21813;49.686;21.766;2023-04-15T08:17:39;97552.47;;;11.57;95.92
35226;BME280;21813;49.686;21.766;2023-04-15T08:20:05;97566.63;;;11.81;94.15
35226;BME280;21813;49.686;21.766;2023-04-15T08:22:36;97551.19;;;11.88;92.46
35226;BME280;21813;49.686;21.766;2023-04-15T08:25:02;97555.19;;;12.00;90.48
35226;BME280;21813;49.686;21.766;2023-04-15T08:27:33;97558.69;;;12.09;90.40
35226;BME280;21813;49.686;21.766;2023-04-15T08:29:59;97566.06;;;12.13;88.80
35226;BME280;21813;49.686;21.766;2023-04-15T08:32:29;97570.38;;;12.22;88.19
35226;BME280;21813;49.686;21.766;2023-04-15T08:34:56;97558.34;;;12.29;89.81
35226;BME280;21813;49.686;21.766;2023-04-15T08:37:25;97560.41;;;12.44;90.21
35226;BME280;21813;49.686;21.766;2023-04-15T08:39:52;97554.41;;;12.51;89.39
35226;BME280;21813;49.686;21.766;2023-04-15T08:42:26;97533.56;;;12.67;88.82
35226;BME280;21813;49.686;21.766;2023-04-15T08:44:54;97541.75;;;12.98;89.72
35226;BME280;21813;49.686;21.766;2023-04-15T08:47:23;97554.78;;;13.32;87.30
35226;BME280;21813;49.686;21.766;2023-04-15T08:49:54;97546.00;;;13.49;83.20
35226;BME280;21813;49.686;21.766;2023-04-15T08:52:25;97539.13;;;13.56;82.28
35226;BME280;21813;49.686;21.766;2023-04-15T08:54:55;97553.59;;;13.77;83.72
35226;BME280;21813;49.686;21.766;2023-04-15T08:57:26;97533.13;;;13.80;83.67
35226;BME280;21813;49.686;21.766;2023-04-15T08:59:55;97558.16;;;13.99;82.79
35226;BME280;21813;49.686;21.766;2023-04-15T09:03:04;97535.91;;;13.87;79.84
35226;BME280;21813;49.686;21.766;2023-04-15T09:36:12;97537.81;;;13.44;78.55
35226;BME280;21813;49.686;21.766;2023-04-15T09:39:01;97553.72;;;13.67;77.24
35226;BME280;21813;49.686;21.766;2023-04-15T09:45:21;97542.78;;;13.80;78.06
35226;BME280;21813;49.686;21.766;2023-04-15T09:48:22;97524.09;;;13.75;75.18
35226;BME280;21813;49.686;21.766;2023-04-15T09:50:57;97516.91;;;13.77;73.35
35226;BME280;21813;49.686;21.766;2023-04-15T09:53:26;97534.91;;;13.88;74.03
35226;BME280;21813;49.686;21.766;2023-04-15T09:55:54;97539.69;;;14.00;71.69
35226;BME280;21813;49.686;21.766;2023-04-15T09:58:24;97525.75;;;13.92;70.02
35226;BME280;21813;49.686;21.766;2023-04-15T10:01:03;97527.72;;;13.98;68.89
35226;BME280;21813;49.686;21.766;2023-04-15T10:03:33;97539.81;;;14.07;68.13
35226;BME280;21813;49.686;21.766;2023-04-15T10:06:18;97524.78;;;14.01;69.51
35226;BME280;21813;49.686;21.766;2023-04-15T10:08:47;97532.59;;;14.25;66.61
35226;BME280;21813;49.686;21.766;2023-04-15T10:11:18;97531.13;;;14.31;65.78
35226;BME280;21813;49.686;21.766;2023-04-15T10:13:48;97532.25;;;14.52;67.27
35226;BME280;21813;49.686;21.766;2023-04-15T10:16:18;97537.91;;;14.80;68.17
35226;BME280;21813;49.686;21.766;2023-04-15T10:18:53;97526.25;;;14.91;66.81
35226;BME280;21813;49.686;21.766;2023-04-15T10:21:21;97539.50;;;14.97;67.54
35226;BME280;21813;49.686;21.766;2023-04-15T10:23:48;97516.41;;;14.93;63.77
35226;BME280;21813;49.686;21.766;2023-04-15T10:26:17;97525.59;;;14.89;64.11
35226;BME280;21813;49.686;21.766;2023-04-15T10:28:43;97514.31;;;14.80;65.59
35226;BME280;21813;49.686;21.766;2023-04-15T10:31:15;97528.41;;;14.87;65.28
35226;BME280;21813;49.686;21.766;2023-04-15T10:33:45;97516.13;;;14.72;66.08
35226;BME280;21813;49.686;21.766;2023-04-15T10:36:35;97505.84;;;14.70;67.64
35226;BME280;21813;49.686;21.766;2023-04-15T10:39:40;97531.53;;;14.83;68.74
35226;BME280;21813;49.686;21.766;2023-04-15T10:42:12;97528.13;;;14.74;66.51
35226;BME280;21813;49.686;21.766;2023-04-15T10:44:41;97516.34;;;14.62;65.64
35226;BME280;21813;49.686;21.766;2023-04-15T10:47:13;97523.09;;;14.56;65.61
35226;BME280;21813;49.686;21.766;2023-04-15T10:50:00;97516.91;;;14.41;68.23
35226;BME280;21813;49.686;21.766;2023-04-15T10:52:28;97544.69;;;14.58;67.42
35226;BME280;21813;49.686;21.766;2023-04-15T10:58:59;97533.88;;;14.62;64.95
35226;BME280;21813;49.686;21.766;2023-04-15T11:12:44;97544.69;;;14.58;77.26
35226;BME280;21813;49.686;21.766;2023-04-15T11:15:29;97565.84;;;14.65;78.60
35226;BME280;21813;49.686;21.766;2023-04-15T11:18:12;97566.34;;;14.52;78.38
35226;BME280;21813;49.686;21.766;2023-04-15T11:20:39;97577.19;;;14.33;78.27
35226;BME280;21813;49.686;21.766;2023-04-15T11:23:06;97571.59;;;14.20;80.40
35226;BME280;21813;49.686;21.766;2023-04-15T11:25:34;97562.78;;;14.05;78.72
35226;BME280;21813;49.686;21.766;2023-04-15T11:28:02;97581.09;;;14.05;78.70
35226;BME280;21813;49.686;21.766;2023-04-15T11:33:06;97595.28;;;13.70;81.08
35226;BME280;21813;49.686;21.766;2023-04-15T11:35:36;97581.50;;;13.52;81.84
35226;BME280;21813;49.686;21.766;2023-04-15T11:38:25;97594.75;;;13.50;78.60
35226;BME280;21813;49.686;21.766;2023-04-15T11:40:58;97602.13;;;13.55;79.22
35226;BME280;21813;49.686;21.766;2023-04-15T11:43:24;97612.47;;;13.64;78.81
35226;BME280;21813;49.686;21.766;2023-04-15T11:46:15;97606.25;;;13.65;78.68
35226;BME280;21813;49.686;21.766;2023-04-15T11:48:45;97615.13;;;13.73;78.80
35226;BME280;21813;49.686;21.766;2023-04-15T11:51:33;97606.09;;;13.67;78.35
35226;BME280;21813;49.686;21.766;2023-04-15T11:54:00;97604.94;;;13.69;78.71
35226;BME280;21813;49.686;21.766;2023-04-15T11:56:26;97603.81;;;13.72;78.19
35226;BME280;21813;49.686;21.766;2023-04-15T11:58:57;97605.28;;;13.66;78.51
35226;BME280;21813;49.686;21.766;2023-04-15T12:01:36;97609.56;;;13.76;78.33
35226;BME280;21813;49.686;21.766;2023-04-15T12:04:19;97620.53;;;13.79;77.39
35226;BME280;21813;49.686;21.766;2023-04-15T12:06:47;97596.13;;;13.70;78.26
35226;BME280;21813;49.686;21.766;2023-04-15T12:09:15;97623.34;;;13.94;77.46
35226;BME280;21813;49.686;21.766;2023-04-15T12:11:48;97609.25;;;13.87;77.12
35226;BME280;21813;49.686;21.766;2023-04-15T12:14:31;97625.31;;;14.00;78.66
35226;BME280;21813;49.686;21.766;2023-04-15T12:17:12;97604.03;;;13.87;75.67
35226;BME280;21813;49.686;21.766;2023-04-15T12:19:41;97609.25;;;13.95;77.51
35226;BME280;21813;49.686;21.766;2023-04-15T12:22:08;97617.13;;;14.03;77.43
35226;BME280;21813;49.686;21.766;2023-04-15T12:24:36;97619.75;;;14.03;77.20
35226;BME280;21813;49.686;21.766;2023-04-15T12:27:07;97614.16;;;13.98;76.31
35226;BME280;21813;49.686;21.766;2023-04-15T12:29:35;97622.69;;;14.00;76.82
35226;BME280;21813;49.686;21.766;2023-04-15T12:32:08;97617.28;;;13.93;76.56
35226;BME280;21813;49.686;21.766;2023-04-15T12:34:46;97602.03;;;13.81;75.86
35226;BME280;21813;49.686;21.766;2023-04-15T12:42:40;97607.63;;;13.86;73.44
35226;BME280;21813;49.686;21.766;2023-04-15T12:45:06;97605.28;;;13.83;74.02
35226;BME280;21813;49.686;21.766;2023-04-15T12:47:32;97617.59;;;13.90;73.62
35226;BME280;21813;49.686;21.766;2023-04-15T12:50:02;97602.66;;;13.75;74.01
35226;BME280;21813;49.686;21.766;2023-04-15T12:52:28;97623.47;;;13.84;74.99
35226;BME280;21813;49.686;21.766;2023-04-15T12:54:57;97580.75;;;13.67;76.77
35226;BME280;21813;49.686;21.766;2023-04-15T12:57:24;97605.97;;;13.77;77.16
35226;BME280;21813;49.686;21.766;2023-04-15T12:59:51;97612.50;;;13.81;77.26
35226;BME280;21813;49.686;21.766;2023-04-15T13:02:17;97605.94;;;13.68;77.53
35226;BME280;21813;49.686;21.766;2023-04-15T13:04:43;97618.72;;;13.71;77.20
35226;BME280;21813;49.686;21.766;2023-04-15T13:07:25;97627.53;;;13.70;74.28
35226;BME280;21813;49.686;21.766;2023-04-15T13:12:52;97611.25;;;13.43;64.15
35226;BME280;21813;49.686;21.766;2023-04-15T13:15:20;97625.06;;;13.19;66.34
35226;BME280;21813;49.686;21.766;2023-04-15T13:17:47;97610.28;;;13.10;66.06
35226;BME280;21813;49.686;21.766;2023-04-15T13:20:14;97615.91;;;13.15;64.94
35226;BME280;21813;49.686;21.766;2023-04-15T13:22:40;97585.19;;;13.17;64.45
35226;BME280;21813;49.686;21.766;2023-04-15T13:25:07;97608.78;;;13.33;65.50
35226;BME280;21813;49.686;21.766;2023-04-15T13:27:33;97600.28;;;13.31;65.61
35226;BME280;21813;49.686;21.766;2023-04-15T13:30:02;97610.16;;;13.45;64.75
35226;BME280;21813;49.686;21.766;2023-04-15T13:32:27;97590.66;;;13.40;66.09
35226;BME280;21813;49.686;21.766;2023-04-15T13:34:53;97601.00;;;13.49;65.86
35226;BME280;21813;49.686;21.766;2023-04-15T13:37:28;97600.03;;;13.58;65.28
35226;BME280;21813;49.686;21.766;2023-04-15T13:42:30;97595.72;;;13.41;63.56
35226;BME280;21813;49.686;21.766;2023-04-15T13:44:59;97592.06;;;13.26;63.70
35226;BME280;21813;49.686;21.766;2023-04-15T13:47:26;97580.56;;;13.11;65.30
35226;BME280;21813;49.686;21.766;2023-04-15T13:49:57;97600.53;;;13.12;63.42
35226;BME280;21813;49.686;21.766;2023-04-15T13:52:27;97605.22;;;13.08;64.51
35226;BME280;21813;49.686;21.766;2023-04-15T13:55:20;97626.03;;;13.18;65.60
35226;BME280;21813;49.686;21.766;2023-04-15T13:57:56;97614.94;;;13.24;65.39
35226;BME280;21813;49.686;21.766;2023-04-15T14:00:26;97613.97;;;13.17;66.19
35226;BME280;21813;49.686;21.766;2023-04-15T14:02:51;97621.94;;;13.15;65.40